createdAt,value
2023-03-20T00:01:00.711Z,11.00
2023-03-20T00:06:02.151Z,10.99
2023-03-20T00:11:03.616Z,10.97
2023-03-20T00:16:05.922Z,11.00
2023-03-20T00:21:17.242Z,11.01
2023-03-20T00:26:19.782Z,11.01
2023-03-20T00:31:25.698Z,11.06
2023-03-20T00:36:28.186Z,11.04
2023-03-20T00:41:39.638Z,10.92
2023-03-20T00:46:41.546Z,11.03
2023-03-20T00:51:42.986Z,10.97
2023-03-20T00:57:03.900Z,10.98
2023-03-20T01:02:06.234Z,10.95
2023-03-20T01:07:12.485Z,10.96
2023-03-20T01:12:15.325Z,11.16
2023-03-20T01:17:22.630Z,11.13
2023-03-20T01:22:24.085Z,11.07
2023-03-20T01:27:25.644Z,11.08
2023-03-20T01:32:27.158Z,11.19
2023-03-20T01:37:28.642Z,11.10
2023-03-20T01:42:30.427Z,11.10
2023-03-20T01:47:31.966Z,11.13
2023-03-20T01:52:33.451Z,11.14
2023-03-20T01:57:34.910Z,11.04
2023-03-20T02:02:38.705Z,11.02
2023-03-20T02:07:40.994Z,10.96
2023-03-20T02:12:44.038Z,10.90
2023-03-20T02:17:45.874Z,10.87
2023-03-20T02:23:24.427Z,10.68
2023-03-20T02:28:59.838Z,10.76
2023-03-20T02:34:29.658Z,10.57
2023-03-20T02:39:58.707Z,10.45
2023-03-20T02:45:16.707Z,10.57
2023-03-20T02:50:23.971Z,10.51
2023-03-20T02:55:35.607Z,10.59
2023-03-20T03:00:54.650Z,10.63
2023-03-20T03:06:00.399Z,10.59
2023-03-20T03:11:06.425Z,10.54
2023-03-20T03:16:15.724Z,10.45
2023-03-20T03:21:18.659Z,10.61
2023-03-20T03:26:27.674Z,10.65
2023-03-20T03:31:30.980Z,10.66
2023-03-20T03:36:44.687Z,10.68
2023-03-20T03:42:03.686Z,10.72
2023-03-20T03:47:21.500Z,10.79
2023-03-20T03:52:25.440Z,10.87
2023-03-20T03:57:36.546Z,10.80
2023-03-20T04:02:38.629Z,10.85
2023-03-20T04:07:40.332Z,10.86
2023-03-20T04:12:44.234Z,10.86
2023-03-20T04:17:46.114Z,10.81
2023-03-20T04:22:47.606Z,10.78
2023-03-20T04:27:49.330Z,10.70
2023-03-20T04:32:50.789Z,10.73
2023-03-20T04:37:52.288Z,10.67
2023-03-20T04:42:53.702Z,10.75
2023-03-20T04:47:55.327Z,10.81
2023-03-20T04:52:56.757Z,10.85
2023-03-20T04:57:58.200Z,10.82
2023-03-20T05:03:00.447Z,10.85
2023-03-20T05:08:01.882Z,10.77
2023-03-20T05:13:03.302Z,10.86
2023-03-20T05:18:04.757Z,10.82
2023-03-20T05:23:06.593Z,10.87
2023-03-20T05:28:08.160Z,10.92
2023-03-20T05:33:09.601Z,10.97
2023-03-20T05:38:11.184Z,11.00
2023-03-20T05:43:12.607Z,11.04
2023-03-20T05:48:14.023Z,11.05
2023-03-20T05:53:16.350Z,11.12
2023-03-20T05:58:17.823Z,11.16
2023-03-20T06:03:19.714Z,11.24
2023-03-20T06:08:21.162Z,11.33
2023-03-20T06:13:22.600Z,11.43
2023-03-20T06:18:24.040Z,11.53
2023-03-20T06:23:25.465Z,11.55
2023-03-20T06:28:26.881Z,11.50
2023-03-20T06:33:28.931Z,11.32
2023-03-20T06:38:30.697Z,11.36
2023-03-20T06:43:32.127Z,11.39
2023-03-20T06:48:33.582Z,11.52
2023-03-20T06:53:35.213Z,11.52
2023-03-20T06:58:36.628Z,11.61
2023-03-20T07:03:38.061Z,11.75
2023-03-20T07:08:40.042Z,11.63
2023-03-20T07:13:41.687Z,11.55
2023-03-20T07:18:43.130Z,11.63
2023-03-20T07:23:44.965Z,11.70
2023-03-20T07:28:46.383Z,11.82
2023-03-20T07:33:47.984Z,11.79
2023-03-20T07:38:49.438Z,11.89
2023-03-20T07:43:51.106Z,11.98
2023-03-20T07:48:52.666Z,12.05
2023-03-20T07:53:54.110Z,12.18
2023-03-20T07:58:55.552Z,12.27
2023-03-20T08:03:57.166Z,12.23
2023-03-20T08:08:58.649Z,12.17
2023-03-20T08:14:00.112Z,12.23
2023-03-20T08:19:02.838Z,12.00
2023-03-20T08:24:04.579Z,12.07
2023-03-20T08:29:06.249Z,12.11
2023-03-20T08:34:07.756Z,12.04
2023-03-20T08:39:09.647Z,12.11
2023-03-20T08:44:12.019Z,11.96
2023-03-20T08:49:13.805Z,12.01
2023-03-20T08:54:18.273Z,12.01
2023-03-20T08:59:19.748Z,11.94
2023-03-20T09:04:21.195Z,11.89
2023-03-20T09:09:29.215Z,11.97
2023-03-20T09:14:30.986Z,11.95
2023-03-20T09:19:32.433Z,11.96
2023-03-20T09:24:33.907Z,11.86
2023-03-20T09:29:35.714Z,12.18
2023-03-20T09:34:37.196Z,12.42
2023-03-20T09:39:38.611Z,12.63
2023-03-20T09:45:08.384Z,12.36
2023-03-20T09:50:25.945Z,12.34
2023-03-20T09:55:36.359Z,12.57
2023-03-20T10:00:40.412Z,12.90
2023-03-20T10:05:49.798Z,12.97
2023-03-20T10:11:16.227Z,13.19
2023-03-20T10:16:35.782Z,13.41
2023-03-20T10:21:44.259Z,13.73
2023-03-20T10:26:48.845Z,13.52
2023-03-20T10:32:13.431Z,13.67
2023-03-20T10:37:27.037Z,13.89
2023-03-20T10:42:33.721Z,14.13
2023-03-20T10:47:39.395Z,14.16
2023-03-20T10:52:42.169Z,14.55
2023-03-20T10:57:49.256Z,14.53
2023-03-20T11:02:50.939Z,14.69
2023-03-20T11:08:02.079Z,14.89
2023-03-20T11:13:38.293Z,15.00
2023-03-20T11:18:42.080Z,15.35
2023-03-20T11:23:43.667Z,15.53
2023-03-20T11:28:58.729Z,15.32
2023-03-20T11:34:15.423Z,15.42
2023-03-20T11:39:34.133Z,15.63
2023-03-20T11:44:36.823Z,15.77
2023-03-20T11:49:52.857Z,15.78
2023-03-20T11:54:59.125Z,15.91
2023-03-20T12:00:07.217Z,15.60
2023-03-20T12:05:28.909Z,15.77
2023-03-20T12:10:37.187Z,15.96
2023-03-20T12:15:43.508Z,15.99
2023-03-20T12:21:02.032Z,16.04
2023-03-20T12:26:15.678Z,16.21
2023-03-20T12:31:30.745Z,16.23
2023-03-20T12:36:35.937Z,16.41
2023-03-20T12:41:57.467Z,16.63
2023-03-20T12:47:39.925Z,17.02
2023-03-20T12:53:11.719Z,17.05
2023-03-20T12:58:43.970Z,16.96
2023-03-20T13:04:03.919Z,17.23
2023-03-20T13:09:16.211Z,17.24
2023-03-20T13:14:24.429Z,17.58
2023-03-20T13:19:37.981Z,17.51
2023-03-20T13:24:50.618Z,17.11
2023-03-20T13:30:34.568Z,17.17
2023-03-20T13:35:51.103Z,16.72
2023-03-20T13:41:00.718Z,16.63
2023-03-20T13:46:09.847Z,16.57
2023-03-20T13:51:29.147Z,16.66
2023-03-20T13:57:08.188Z,16.56
2023-03-20T14:02:38.393Z,16.17
2023-03-20T14:07:44.535Z,16.18
2023-03-20T14:12:49.465Z,16.40
2023-03-20T14:17:52.181Z,15.82
2023-03-20T14:22:53.644Z,15.69
2023-03-20T14:28:13.522Z,15.35
2023-03-20T14:33:14.970Z,15.71
2023-03-20T14:38:35.942Z,15.59
2023-03-20T14:43:52.660Z,15.21
2023-03-20T14:48:55.985Z,15.39
2023-03-20T14:54:24.287Z,15.51
2023-03-20T14:59:25.807Z,15.25
2023-03-20T15:04:29.036Z,15.30
2023-03-20T15:09:34.899Z,14.95
2023-03-20T15:14:43.642Z,14.74
2023-03-20T15:19:45.157Z,14.31
2023-03-20T15:24:55.712Z,14.08
2023-03-20T15:30:00.261Z,13.99
2023-03-20T15:35:04.841Z,14.12
2023-03-20T15:40:49.214Z,14.44
2023-03-20T15:46:14.109Z,14.04
2023-03-20T15:51:21.407Z,13.83
2023-03-20T15:56:27.592Z,13.66
2023-03-20T16:01:31.985Z,13.91
2023-03-20T16:06:33.480Z,13.61
2023-03-20T16:11:38.306Z,13.40
2023-03-20T16:16:40.481Z,13.34
2023-03-20T16:21:47.652Z,13.40
2023-03-20T16:26:51.575Z,13.42
2023-03-20T16:32:05.937Z,12.96
2023-03-20T16:37:22.835Z,12.99
2023-03-20T16:42:28.042Z,13.11
2023-03-20T16:47:38.398Z,13.14
2023-03-20T16:52:47.164Z,12.88
2023-03-20T16:57:51.452Z,12.87
2023-03-20T17:03:01.353Z,13.06
2023-03-20T17:08:12.472Z,12.67
2023-03-20T17:13:15.164Z,12.63
2023-03-20T17:18:16.627Z,12.60
2023-03-20T17:23:21.951Z,12.89
2023-03-20T17:28:31.260Z,12.69
2023-03-20T17:33:33.713Z,13.14
2023-03-20T17:38:35.803Z,12.77
2023-03-20T17:43:37.293Z,12.77
2023-03-20T17:48:39.212Z,12.65
2023-03-20T17:53:40.877Z,12.48
2023-03-20T17:58:44.715Z,12.48
2023-03-20T18:03:46.192Z,12.42
2023-03-20T18:08:47.647Z,12.38
2023-03-20T18:13:49.254Z,12.32
2023-03-20T18:18:51.493Z,12.47
2023-03-20T18:23:52.961Z,12.40
2023-03-20T18:28:55.606Z,12.49
2023-03-20T18:33:57.178Z,12.43
2023-03-20T18:38:58.900Z,12.52
2023-03-20T18:44:00.385Z,12.55
2023-03-20T18:49:01.837Z,12.56
2023-03-20T18:54:03.395Z,12.55
2023-03-20T18:59:07.772Z,12.67
2023-03-20T19:04:09.406Z,12.53
2023-03-20T19:09:12.159Z,12.32
2023-03-20T19:14:14.159Z,12.32
2023-03-20T19:19:15.935Z,12.12
2023-03-20T19:24:21.460Z,12.29
2023-03-20T19:29:23.043Z,12.37
2023-03-20T19:35:14.504Z,12.33
2023-03-20T19:39:46.075Z,12.35
2023-03-20T19:44:47.523Z,12.42
2023-03-20T19:49:48.961Z,12.26
2023-03-20T19:55:02.106Z,12.52
2023-03-20T20:00:55.768Z,12.17
2023-03-20T20:05:31.137Z,12.37
2023-03-20T20:10:41.033Z,12.27
2023-03-20T20:15:42.457Z,12.19
2023-03-20T20:21:28.520Z,12.25
2023-03-20T20:26:09.457Z,12.02
2023-03-20T20:31:10.976Z,11.82
2023-03-20T20:37:17.377Z,11.96
2023-03-20T20:41:34.697Z,12.04
2023-03-20T20:46:36.122Z,12.02
2023-03-20T20:51:37.733Z,11.95
2023-03-20T20:56:40.886Z,11.72
2023-03-20T21:01:42.619Z,11.74
2023-03-20T21:07:08.593Z,11.66
2023-03-20T21:12:06.208Z,11.68
2023-03-20T21:17:09.631Z,11.28
2023-03-20T21:22:13.317Z,11.44
2023-03-20T21:27:15.457Z,11.49
2023-03-20T21:32:19.820Z,11.58
2023-03-20T21:38:22.968Z,11.62
2023-03-20T21:42:42.874Z,11.68
2023-03-20T21:48:33.417Z,11.65
2023-03-20T21:53:56.894Z,11.60
2023-03-20T22:04:45.084Z,11.51
2023-03-20T22:15:20.100Z,11.58
2023-03-20T22:25:53.130Z,11.60
2023-03-20T22:37:01.415Z,11.62
2023-03-20T22:46:46.364Z,11.65
2023-03-20T22:52:07.806Z,11.48
2023-03-20T22:57:09.866Z,11.39
2023-03-20T23:02:11.525Z,11.32
2023-03-20T23:07:13.056Z,11.31
2023-03-20T23:12:14.516Z,11.37
2023-03-20T23:17:15.983Z,11.37
2023-03-20T23:22:17.447Z,11.35
2023-03-20T23:27:19.922Z,11.28
2023-03-20T23:32:21.377Z,11.13
2023-03-20T23:37:23.468Z,11.18
2023-03-20T23:42:30.630Z,11.31
2023-03-20T23:47:43.889Z,11.05
2023-03-20T23:52:57.225Z,11.17
2023-03-20T23:58:02.764Z,11.24
